createdAt,value
2023-12-01T00:05:00.078Z,98720.86
2023-12-01T00:10:03.018Z,98714.91
2023-12-01T00:15:06.811Z,98712.54
2023-12-01T00:20:10.074Z,98713.41
2023-12-01T00:25:12.835Z,98717.02
2023-12-01T00:30:15.660Z,98720.45
2023-12-01T00:35:18.664Z,98722.70
2023-12-01T00:40:21.615Z,98723.41
2023-12-01T00:45:24.479Z,98721.73
2023-12-01T00:50:27.259Z,98722.98
2023-12-01T00:55:30.097Z,98723.84
2023-12-01T01:00:32.950Z,98726.39
2023-12-01T01:05:35.769Z,98722.79
2023-12-01T01:10:38.576Z,98726.90
2023-12-01T01:15:41.803Z,98730.67
2023-12-01T01:20:44.707Z,98729.16
2023-12-01T01:25:47.596Z,98720.98
2023-12-01T01:30:50.667Z,98724.41
2023-12-01T01:35:53.416Z,98722.71
2023-12-01T01:40:56.282Z,98723.23
2023-12-01T01:46:17.626Z,98719.31
2023-12-01T01:51:20.601Z,98719.98
2023-12-01T01:56:23.890Z,98720.14
2023-12-01T02:01:26.999Z,98717.07
2023-12-01T02:06:34.263Z,98715.55
2023-12-01T02:11:37.257Z,98720.85
2023-12-01T02:16:46.904Z,98719.88
2023-12-01T02:21:52.738Z,98716.69
2023-12-01T02:26:55.862Z,98713.14
2023-12-01T02:31:59.421Z,98713.52
2023-12-01T02:37:02.295Z,98706.90
2023-12-01T02:42:05.373Z,98703.51
2023-12-01T02:47:10.203Z,98709.83
2023-12-01T02:52:13.023Z,98706.93
2023-12-01T02:57:15.742Z,98704.57
2023-12-01T03:02:19.325Z,98711.55
2023-12-01T03:07:22.166Z,98712.74
2023-12-01T03:12:25.811Z,98709.34
2023-12-01T03:17:28.877Z,98706.80
2023-12-01T03:22:31.630Z,98709.18
2023-12-01T03:27:34.474Z,98708.33
2023-12-01T03:32:37.227Z,98699.65
2023-12-01T03:37:40.567Z,98699.31
2023-12-01T03:42:47.853Z,98696.08
2023-12-01T03:47:52.857Z,98701.18
2023-12-01T03:52:55.902Z,98702.71
2023-12-01T03:57:58.660Z,98705.77
2023-12-01T04:03:02.861Z,98699.66
2023-12-01T04:08:05.681Z,98703.23
2023-12-01T04:13:08.930Z,98697.28
2023-12-01T04:18:13.336Z,98698.63
2023-12-01T04:23:16.319Z,98705.09
2023-12-01T04:28:19.154Z,98704.59
2023-12-01T04:33:24.232Z,98702.38
2023-12-01T04:38:27.458Z,98701.02
2023-12-01T04:43:31.777Z,98703.39
2023-12-01T04:48:34.601Z,98698.80
2023-12-01T04:53:37.459Z,98687.94
2023-12-01T04:58:40.568Z,98691.16
2023-12-01T05:03:43.470Z,98691.33
2023-12-01T05:08:46.680Z,98705.95
2023-12-01T05:13:50.174Z,98714.80
2023-12-01T05:18:53.145Z,98710.38
2023-12-01T05:23:56.073Z,98707.98
2023-12-01T05:28:58.808Z,98706.80
2023-12-01T05:34:06.796Z,98699.49
2023-12-01T05:39:14.430Z,98701.70
2023-12-01T05:44:17.358Z,98708.33
2023-12-01T05:49:20.210Z,98707.98
2023-12-01T05:54:22.939Z,98706.12
2023-12-01T05:59:25.690Z,98707.14
2023-12-01T06:04:29.704Z,98708.67
2023-12-01T06:09:32.623Z,98713.44
2023-12-01T06:14:35.412Z,98710.52
2023-12-01T06:19:38.177Z,98708.65
2023-12-01T06:24:41.019Z,98709.83
2023-12-01T06:29:45.336Z,98708.96
2023-12-01T06:34:48.123Z,98719.13
2023-12-01T06:39:51.035Z,98717.25
2023-12-01T06:44:53.951Z,98717.08
2023-12-01T06:49:56.746Z,98725.06
2023-12-01T06:55:00.027Z,98730.33
2023-12-01T07:00:09.137Z,98727.80
2023-12-01T07:05:21.138Z,98730.88
2023-12-01T07:10:24.684Z,98737.70
2023-12-01T07:15:28.824Z,98738.77
2023-12-01T07:20:35.063Z,98739.79
2023-12-01T07:25:38.397Z,98738.77
2023-12-01T07:30:42.672Z,98736.38
2023-12-01T07:35:45.623Z,98742.16
2023-12-01T07:40:48.526Z,98746.37
2023-12-01T07:45:51.333Z,98750.43
2023-12-01T07:50:54.274Z,98759.25
2023-12-01T07:55:57.134Z,98759.40
2023-12-01T08:01:00.440Z,98754.75
2023-12-01T08:06:04.398Z,98755.02
2023-12-01T08:11:07.515Z,98754.47
2023-12-01T08:16:10.818Z,98767.71
2023-12-01T08:21:15.594Z,98774.10
2023-12-01T08:26:18.438Z,98775.11
2023-12-01T08:31:21.250Z,98778.31
2023-12-01T08:36:24.131Z,98785.61
2023-12-01T08:41:27.009Z,98802.44
2023-12-01T08:46:30.059Z,98800.40
2023-12-01T08:51:33.116Z,98799.20
2023-12-01T08:56:35.996Z,98801.20
2023-12-01T09:01:38.888Z,98805.77
2023-12-01T09:06:41.823Z,98812.81
2023-12-01T09:11:47.389Z,98820.09
2023-12-01T09:16:50.484Z,98817.64
2023-12-01T09:21:53.929Z,98812.17
2023-12-01T09:26:57.559Z,98814.60
2023-12-01T09:32:00.429Z,98826.98
2023-12-01T09:37:03.842Z,98836.88
2023-12-01T09:42:07.897Z,98836.61
2023-12-01T09:47:13.923Z,98829.40
2023-12-01T09:52:17.085Z,98824.15
2023-12-01T09:57:21.434Z,98827.77
2023-12-01T10:02:24.330Z,98826.17
2023-12-01T10:07:27.150Z,98825.05
2023-12-01T10:12:30.012Z,98822.00
2023-12-01T10:17:33.236Z,98810.02
2023-12-01T10:22:38.024Z,98816.75
2023-12-01T10:27:41.476Z,98820.06
2023-12-01T10:32:44.704Z,98819.96
2023-12-01T10:37:49.395Z,98828.20
2023-12-01T10:42:53.677Z,98832.72
2023-12-01T10:48:00.063Z,98823.39
2023-12-01T10:53:04.529Z,98825.02
2023-12-01T10:58:07.902Z,98825.81
2023-12-01T11:03:12.210Z,98836.58
2023-12-01T11:08:34.546Z,98843.20
2023-12-01T11:14:08.115Z,98842.67
2023-12-01T11:19:12.378Z,98843.78
2023-12-01T11:24:36.168Z,98855.42
2023-12-01T11:29:58.448Z,98845.86
2023-12-01T11:35:08.055Z,98840.05
2023-12-01T11:40:21.994Z,98847.02
2023-12-01T11:45:42.820Z,98848.56
2023-12-01T11:50:46.167Z,98846.30
2023-12-01T11:55:52.114Z,98830.48
2023-12-01T12:00:55.114Z,98832.79
2023-12-01T12:05:58.000Z,98830.65
2023-12-01T12:11:01.708Z,98830.48
2023-12-01T12:16:05.573Z,98825.74
2023-12-01T12:21:09.470Z,98822.34
2023-12-01T12:26:19.229Z,98818.42
2023-12-01T12:31:29.231Z,98829.44
2023-12-01T12:36:33.791Z,98824.05
2023-12-01T12:41:40.878Z,98831.65
2023-12-01T12:46:57.084Z,98833.61
2023-12-01T12:52:01.263Z,98836.73
2023-12-01T12:57:04.504Z,98842.39
2023-12-01T13:02:08.137Z,98847.52
2023-12-01T13:07:10.944Z,98847.04
2023-12-01T13:12:14.177Z,98846.23
2023-12-01T13:17:17.006Z,98849.10
2023-12-01T13:22:19.982Z,98854.71
2023-12-01T13:27:22.729Z,98849.61
2023-12-01T13:32:25.573Z,98855.50
2023-12-01T13:37:28.478Z,98854.93
2023-12-01T13:42:31.964Z,98858.20
2023-12-01T13:47:36.304Z,98856.02
2023-12-01T13:52:40.397Z,98859.61
2023-12-01T13:57:45.534Z,98854.86
2023-12-01T14:02:49.952Z,98855.77
2023-12-01T14:07:52.909Z,98856.65
2023-12-01T14:12:55.728Z,98853.29
2023-12-01T14:17:58.676Z,98853.54
2023-12-01T14:23:01.528Z,98862.78
2023-12-01T14:28:04.485Z,98866.08
2023-12-01T14:33:07.522Z,98870.54
2023-12-01T14:38:11.147Z,98865.43
2023-12-01T14:43:14.007Z,98874.82
2023-12-01T14:48:18.151Z,98877.90
2023-12-01T14:53:21.167Z,98875.37
2023-12-01T14:58:23.971Z,98880.00
2023-12-01T15:03:26.914Z,98888.70
2023-12-01T15:08:29.754Z,98885.46
2023-12-01T15:13:33.048Z,98893.45
2023-12-01T15:18:38.417Z,98897.39
2023-12-01T15:23:41.423Z,98900.31
2023-12-01T15:28:45.747Z,98900.50
2023-12-01T15:33:48.671Z,98907.67
2023-12-01T15:38:52.113Z,98906.30
2023-12-01T15:43:55.036Z,98911.23
2023-12-01T15:48:58.499Z,98910.89
2023-12-01T15:54:01.386Z,98911.73
2023-12-01T15:59:04.332Z,98906.95
2023-12-01T16:04:11.604Z,98916.48
2023-12-01T16:09:14.533Z,98917.15
2023-12-01T16:14:17.992Z,98916.63
2023-12-01T16:19:20.807Z,98919.02
2023-12-01T16:24:30.593Z,98913.19
2023-12-01T16:29:33.891Z,98916.77
2023-12-01T16:34:36.676Z,98915.04
2023-12-01T16:39:39.560Z,98912.63
2023-12-01T16:44:42.402Z,98915.17
2023-12-01T16:49:45.267Z,98916.54
2023-12-01T16:54:48.804Z,98906.98
2023-12-01T16:59:51.656Z,98901.69
2023-12-01T17:04:54.688Z,98904.73
2023-12-01T17:09:57.601Z,98902.69
2023-12-01T17:15:00.728Z,98901.98
2023-12-01T17:20:07.256Z,98893.77
2023-12-01T17:25:10.805Z,98890.34
2023-12-01T17:30:14.256Z,98890.50
2023-12-01T17:35:17.104Z,98902.09
2023-12-01T17:40:19.906Z,98916.76
2023-12-01T17:45:22.759Z,98927.67
2023-12-01T17:50:25.669Z,98944.74
2023-12-01T17:55:28.519Z,98954.65
2023-12-01T18:00:32.808Z,98953.27
2023-12-01T18:05:35.714Z,98957.54
2023-12-01T18:10:39.844Z,98956.69
2023-12-01T18:15:42.650Z,98952.24
2023-12-01T18:20:45.669Z,98957.89
2023-12-01T18:25:49.121Z,98986.58
2023-12-01T18:30:52.085Z,98986.91
2023-12-01T18:35:55.537Z,98981.60
2023-12-01T18:40:58.671Z,98981.58
2023-12-01T18:46:01.436Z,98985.15
2023-12-01T18:51:08.233Z,98995.75
2023-12-01T18:56:11.169Z,98996.95
2023-12-01T19:01:14.289Z,99005.98
2023-12-01T19:06:17.591Z,98995.04
2023-12-01T19:11:20.626Z,98996.54
2023-12-01T19:16:23.568Z,99003.18
2023-12-01T19:21:26.325Z,99014.11
2023-12-01T19:26:29.140Z,99009.14
2023-12-01T19:31:31.936Z,99011.53
2023-12-01T19:36:34.822Z,99011.19
2023-12-01T19:41:37.649Z,99013.09
2023-12-01T19:46:40.473Z,99011.92
2023-12-01T19:51:43.309Z,99016.18
2023-12-01T19:56:46.092Z,99027.61
2023-12-01T20:01:49.005Z,99031.16
2023-12-01T20:06:52.137Z,99034.04
2023-12-01T20:11:55.211Z,99035.60
2023-12-01T20:16:58.106Z,99041.23
2023-12-01T20:22:00.917Z,99050.27
2023-12-01T20:27:03.918Z,99045.83
2023-12-01T20:32:08.361Z,99044.94
2023-12-01T20:37:11.839Z,99039.64
2023-12-01T20:42:14.900Z,99044.08
2023-12-01T20:47:18.121Z,99056.03
2023-12-01T20:52:21.498Z,99057.04
2023-12-01T20:57:24.377Z,99044.23
2023-12-01T21:02:27.239Z,99038.94
2023-12-01T21:07:30.071Z,99041.48
2023-12-01T21:12:32.978Z,99043.69
2023-12-01T21:17:37.084Z,99046.92
2023-12-01T21:22:40.040Z,99045.40
2023-12-01T21:27:43.012Z,99049.84
2023-12-01T21:32:46.054Z,99048.46
2023-12-01T21:37:49.351Z,99043.85
2023-12-01T21:42:53.610Z,99037.34
2023-12-01T21:47:56.453Z,99036.60
2023-12-01T21:52:59.469Z,99044.59
2023-12-01T21:58:03.485Z,99050.19
2023-12-01T22:03:06.329Z,99046.59
2023-12-01T22:08:09.389Z,99043.34
2023-12-01T22:13:12.195Z,99040.27
2023-12-01T22:18:15.190Z,99057.16
2023-12-01T22:23:17.952Z,99063.83
2023-12-01T22:28:21.073Z,99063.13
2023-12-01T22:33:23.996Z,99049.63
2023-12-01T22:38:26.860Z,99055.09
2023-12-01T22:43:29.785Z,99057.96
2023-12-01T22:48:32.716Z,99069.88
2023-12-01T22:53:35.528Z,99069.36
2023-12-01T22:58:40.191Z,99076.38
2023-12-01T23:03:44.919Z,99071.25
2023-12-01T23:08:48.010Z,99066.95
2023-12-01T23:13:50.952Z,99060.60
2023-12-01T23:18:54.153Z,99066.05
2023-12-01T23:23:57.024Z,99069.31
2023-12-01T23:28:59.803Z,99079.95
2023-12-01T23:34:04.177Z,99073.13
2023-12-01T23:39:07.188Z,99062.68
2023-12-01T23:44:09.948Z,99066.44
2023-12-01T23:49:13.312Z,99059.77
2023-12-01T23:54:16.556Z,99066.95
2023-12-01T23:59:19.362Z,99064.76
